sensor_id;sensor_type;location;lat;lon;timestamp;temperature;humidity
69464;DHT22;56665;41.106;16.688;2024-02-23T00:00:34;12.07;65.59
69464;DHT22;56665;41.106;16.688;2024-02-23T00:03:37;12.07;65.31
69464;DHT22;56665;41.106;16.688;2024-02-23T00:06:41;12.07;65.12
69464;DHT22;56665;41.106;16.688;2024-02-23T00:09:45;12.13;65.15
69464;DHT22;56665;41.106;16.688;2024-02-23T00:12:48;12.14;65.00
69464;DHT22;56665;41.106;16.688;2024-02-23T00:15:52;12.13;64.95
69464;DHT22;56665;41.106;16.688;2024-02-23T00:18:56;12.13;65.13
69464;DHT22;56665;41.106;16.688;2024-02-23T00:22:00;12.14;64.82
69464;DHT22;56665;41.106;16.688;2024-02-23T00:25:04;12.16;64.83
69464;DHT22;56665;41.106;16.688;2024-02-23T00:28:08;12.17;64.69
69464;DHT22;56665;41.106;16.688;2024-02-23T00:31:12;12.20;64.28
69464;DHT22;56665;41.106;16.688;2024-02-23T00:34:16;12.23;64.26
69464;DHT22;56665;41.106;16.688;2024-02-23T00:37:20;12.23;64.33
69464;DHT22;56665;41.106;16.688;2024-02-23T00:40:23;12.18;64.21
69464;DHT22;56665;41.106;16.688;2024-02-23T00:43:27;12.17;64.19
69464;DHT22;56665;41.106;16.688;2024-02-23T00:46:33;12.14;64.07
69464;DHT22;56665;41.106;16.688;2024-02-23T00:49:37;12.18;64.17
69464;DHT22;56665;41.106;16.688;2024-02-23T00:52:40;12.18;64.09
69464;DHT22;56665;41.106;16.688;2024-02-23T00:55:44;12.21;63.80
69464;DHT22;56665;41.106;16.688;2024-02-23T00:58:47;12.17;64.00
69464;DHT22;56665;41.106;16.688;2024-02-23T01:01:51;12.16;64.13
69464;DHT22;56665;41.106;16.688;2024-02-23T01:04:55;12.14;64.29
69464;DHT22;56665;41.106;16.688;2024-02-23T01:08:00;12.10;64.50
69464;DHT22;56665;41.106;16.688;2024-02-23T01:11:04;12.04;64.72
69464;DHT22;56665;41.106;16.688;2024-02-23T01:14:08;12.00;64.69
69464;DHT22;56665;41.106;16.688;2024-02-23T01:17:12;11.97;64.80
69464;DHT22;56665;41.106;16.688;2024-02-23T01:20:15;11.91;64.96
69464;DHT22;56665;41.106;16.688;2024-02-23T01:23:19;11.90;65.10
69464;DHT22;56665;41.106;16.688;2024-02-23T01:26:23;11.89;65.28
69464;DHT22;56665;41.106;16.688;2024-02-23T01:29:27;11.80;65.62
69464;DHT22;56665;41.106;16.688;2024-02-23T01:32:31;11.76;65.83
69464;DHT22;56665;41.106;16.688;2024-02-23T01:35:35;11.79;65.88
69464;DHT22;56665;41.106;16.688;2024-02-23T01:38:39;11.72;65.99
69464;DHT22;56665;41.106;16.688;2024-02-23T01:41:46;11.70;66.08
69464;DHT22;56665;41.106;16.688;2024-02-23T01:44:49;11.69;66.12
69464;DHT22;56665;41.106;16.688;2024-02-23T01:47:53;11.69;66.02
69464;DHT22;56665;41.106;16.688;2024-02-23T01:50:57;11.63;66.00
69464;DHT22;56665;41.106;16.688;2024-02-23T01:54:01;11.61;66.15
69464;DHT22;56665;41.106;16.688;2024-02-23T01:57:06;11.51;66.33
69464;DHT22;56665;41.106;16.688;2024-02-23T02:00:15;11.47;66.39
69464;DHT22;56665;41.106;16.688;2024-02-23T02:03:23;11.39;66.51
69464;DHT22;56665;41.106;16.688;2024-02-23T02:06:27;11.35;66.72
69464;DHT22;56665;41.106;16.688;2024-02-23T02:09:31;11.35;66.59
69464;DHT22;56665;41.106;16.688;2024-02-23T02:12:35;11.32;66.53
69464;DHT22;56665;41.106;16.688;2024-02-23T02:15:38;11.34;66.58
69464;DHT22;56665;41.106;16.688;2024-02-23T02:18:42;11.38;66.41
69464;DHT22;56665;41.106;16.688;2024-02-23T02:21:48;11.39;66.25
69464;DHT22;56665;41.106;16.688;2024-02-23T02:24:51;11.41;65.98
69464;DHT22;56665;41.106;16.688;2024-02-23T02:27:55;11.41;66.02
69464;DHT22;56665;41.106;16.688;2024-02-23T02:30:59;11.47;65.84
69464;DHT22;56665;41.106;16.688;2024-02-23T02:34:04;11.47;65.87
69464;DHT22;56665;41.106;16.688;2024-02-23T02:37:08;11.44;65.83
69464;DHT22;56665;41.106;16.688;2024-02-23T02:40:12;11.42;65.95
69464;DHT22;56665;41.106;16.688;2024-02-23T02:43:16;11.41;65.76
69464;DHT22;56665;41.106;16.688;2024-02-23T02:46:19;11.41;65.78
69464;DHT22;56665;41.106;16.688;2024-02-23T02:49:24;11.42;66.10
69464;DHT22;56665;41.106;16.688;2024-02-23T02:52:27;11.34;65.77
69464;DHT22;56665;41.106;16.688;2024-02-23T02:55:31;11.28;65.84
69464;DHT22;56665;41.106;16.688;2024-02-23T02:58:35;11.31;66.11
69464;DHT22;56665;41.106;16.688;2024-02-23T03:01:39;11.28;65.86
69464;DHT22;56665;41.106;16.688;2024-02-23T03:04:47;11.29;66.41
69464;DHT22;56665;41.106;16.688;2024-02-23T03:07:51;11.28;65.94
69464;DHT22;56665;41.106;16.688;2024-02-23T03:10:55;11.29;65.93
69464;DHT22;56665;41.106;16.688;2024-02-23T03:13:59;11.29;66.14
69464;DHT22;56665;41.106;16.688;2024-02-23T03:17:03;11.27;66.16
69464;DHT22;56665;41.106;16.688;2024-02-23T03:20:07;11.18;66.56
69464;DHT22;56665;41.106;16.688;2024-02-23T03:23:14;11.21;67.21
69464;DHT22;56665;41.106;16.688;2024-02-23T03:26:18;11.18;67.03
69464;DHT22;56665;41.106;16.688;2024-02-23T03:29:22;11.17;67.31
69464;DHT22;56665;41.106;16.688;2024-02-23T03:32:32;11.18;67.81
69464;DHT22;56665;41.106;16.688;2024-02-23T03:35:39;11.18;67.82
69464;DHT22;56665;41.106;16.688;2024-02-23T03:38:42;11.21;68.10
69464;DHT22;56665;41.106;16.688;2024-02-23T03:41:46;11.24;69.27
69464;DHT22;56665;41.106;16.688;2024-02-23T03:44:50;11.19;68.49
69464;DHT22;56665;41.106;16.688;2024-02-23T03:47:54;11.18;68.70
69464;DHT22;56665;41.106;16.688;2024-02-23T03:50:58;11.18;68.34
69464;DHT22;56665;41.106;16.688;2024-02-23T03:54:01;11.11;68.51
69464;DHT22;56665;41.106;16.688;2024-02-23T03:57:05;11.12;68.77
69464;DHT22;56665;41.106;16.688;2024-02-23T04:00:09;11.12;68.60
69464;DHT22;56665;41.106;16.688;2024-02-23T04:03:19;11.15;68.56
69464;DHT22;56665;41.106;16.688;2024-02-23T04:06:22;11.18;68.51
69464;DHT22;56665;41.106;16.688;2024-02-23T04:09:26;11.15;68.61
69464;DHT22;56665;41.106;16.688;2024-02-23T04:12:30;11.10;68.67
69464;DHT22;56665;41.106;16.688;2024-02-23T04:15:34;11.07;68.67
69464;DHT22;56665;41.106;16.688;2024-02-23T04:18:39;11.08;68.52
69464;DHT22;56665;41.106;16.688;2024-02-23T04:21:43;11.06;68.61
69464;DHT22;56665;41.106;16.688;2024-02-23T04:24:47;10.98;68.65
69464;DHT22;56665;41.106;16.688;2024-02-23T04:27:50;11.01;68.87
69464;DHT22;56665;41.106;16.688;2024-02-23T04:30:54;11.03;68.77
69464;DHT22;56665;41.106;16.688;2024-02-23T04:33:58;11.01;68.40
69464;DHT22;56665;41.106;16.688;2024-02-23T04:37:02;10.97;68.58
69464;DHT22;56665;41.106;16.688;2024-02-23T04:40:06;10.97;68.50
69464;DHT22;56665;41.106;16.688;2024-02-23T04:43:10;10.98;68.50
69464;DHT22;56665;41.106;16.688;2024-02-23T04:46:14;11.00;68.54
69464;DHT22;56665;41.106;16.688;2024-02-23T04:49:18;11.00;68.59
69464;DHT22;56665;41.106;16.688;2024-02-23T04:52:22;11.06;68.43
69464;DHT22;56665;41.106;16.688;2024-02-23T04:55:26;11.01;68.14
69464;DHT22;56665;41.106;16.688;2024-02-23T04:58:30;10.98;68.06
69464;DHT22;56665;41.106;16.688;2024-02-23T05:01:37;11.00;68.26
69464;DHT22;56665;41.106;16.688;2024-02-23T05:04:41;10.96;68.31
69464;DHT22;56665;41.106;16.688;2024-02-23T05:07:44;10.93;68.23
69464;DHT22;56665;41.106;16.688;2024-02-23T05:10:48;10.88;68.37
69464;DHT22;56665;41.106;16.688;2024-02-23T05:13:52;10.90;68.46
69464;DHT22;56665;41.106;16.688;2024-02-23T05:16:55;10.87;68.69
69464;DHT22;56665;41.106;16.688;2024-02-23T05:19:59;10.87;68.64
69464;DHT22;56665;41.106;16.688;2024-02-23T05:23:03;10.87;69.04
69464;DHT22;56665;41.106;16.688;2024-02-23T05:26:07;10.93;68.66
69464;DHT22;56665;41.106;16.688;2024-02-23T05:29:11;10.98;68.40
69464;DHT22;56665;41.106;16.688;2024-02-23T05:32:16;11.01;68.17
69464;DHT22;56665;41.106;16.688;2024-02-23T05:35:20;11.06;67.96
69464;DHT22;56665;41.106;16.688;2024-02-23T05:38:25;11.08;68.19
69464;DHT22;56665;41.106;16.688;2024-02-23T05:41:28;11.14;68.12
69464;DHT22;56665;41.106;16.688;2024-02-23T05:44:32;11.18;68.14
69464;DHT22;56665;41.106;16.688;2024-02-23T05:47:37;11.14;68.07
69464;DHT22;56665;41.106;16.688;2024-02-23T05:50:41;11.18;68.10
69464;DHT22;56665;41.106;16.688;2024-02-23T05:53:45;11.22;68.23
69464;DHT22;56665;41.106;16.688;2024-02-23T05:56:49;11.27;68.11
69464;DHT22;56665;41.106;16.688;2024-02-23T05:59:54;11.29;68.35
69464;DHT22;56665;41.106;16.688;2024-02-23T06:02:59;11.32;68.52
69464;DHT22;56665;41.106;16.688;2024-02-23T06:06:07;11.86;76.23
69464;DHT22;56665;41.106;16.688;2024-02-23T06:09:10;11.97;68.12
69464;DHT22;56665;41.106;16.688;2024-02-23T06:12:14;12.01;67.72
69464;DHT22;56665;41.106;16.688;2024-02-23T06:15:18;12.07;67.91
69464;DHT22;56665;41.106;16.688;2024-02-23T06:18:22;12.12;67.74
69464;DHT22;56665;41.106;16.688;2024-02-23T06:21:26;12.16;67.62
69464;DHT22;56665;41.106;16.688;2024-02-23T06:24:29;12.18;67.88
69464;DHT22;56665;41.106;16.688;2024-02-23T06:27:33;12.23;67.91
69464;DHT22;56665;41.106;16.688;2024-02-23T06:30:37;12.34;68.19
69464;DHT22;56665;41.106;16.688;2024-02-23T06:33:41;12.40;67.83
69464;DHT22;56665;41.106;16.688;2024-02-23T06:36:44;12.47;67.47
69464;DHT22;56665;41.106;16.688;2024-02-23T06:39:48;12.55;67.43
69464;DHT22;56665;41.106;16.688;2024-02-23T06:42:57;12.59;67.03
69464;DHT22;56665;41.106;16.688;2024-02-23T06:46:06;12.69;67.17
69464;DHT22;56665;41.106;16.688;2024-02-23T06:49:11;12.78;67.38
69464;DHT22;56665;41.106;16.688;2024-02-23T06:52:14;12.92;67.59
69464;DHT22;56665;41.106;16.688;2024-02-23T06:55:18;13.09;66.97
69464;DHT22;56665;41.106;16.688;2024-02-23T06:58:22;13.17;66.17
69464;DHT22;56665;41.106;16.688;2024-02-23T07:01:25;13.34;66.01
69464;DHT22;56665;41.106;16.688;2024-02-23T07:04:30;13.55;65.61
69464;DHT22;56665;41.106;16.688;2024-02-23T07:07:35;13.74;65.31
69464;DHT22;56665;41.106;16.688;2024-02-23T07:10:39;13.94;65.39
69464;DHT22;56665;41.106;16.688;2024-02-23T07:13:43;14.08;64.93
69464;DHT22;56665;41.106;16.688;2024-02-23T07:16:48;14.27;65.02
69464;DHT22;56665;41.106;16.688;2024-02-23T07:19:51;14.43;64.15
69464;DHT22;56665;41.106;16.688;2024-02-23T07:22:56;14.56;63.86
69464;DHT22;56665;41.106;16.688;2024-02-23T07:25:59;14.59;63.13
69464;DHT22;56665;41.106;16.688;2024-02-23T07:29:03;14.76;64.43
69464;DHT22;56665;41.106;16.688;2024-02-23T07:32:07;14.84;62.90
69464;DHT22;56665;41.106;16.688;2024-02-23T07:35:11;14.97;61.97
69464;DHT22;56665;41.106;16.688;2024-02-23T07:38:14;15.07;61.45
69464;DHT22;56665;41.106;16.688;2024-02-23T07:41:18;15.16;61.05
69464;DHT22;56665;41.106;16.688;2024-02-23T07:44:22;15.25;60.75
69464;DHT22;56665;41.106;16.688;2024-02-23T07:47:26;15.39;60.30
69464;DHT22;56665;41.106;16.688;2024-02-23T07:50:33;15.40;60.22
69464;DHT22;56665;41.106;16.688;2024-02-23T07:53:37;15.50;60.18
69464;DHT22;56665;41.106;16.688;2024-02-23T07:56:40;15.57;59.65
69464;DHT22;56665;41.106;16.688;2024-02-23T07:59:44;15.76;59.21
69464;DHT22;56665;41.106;16.688;2024-02-23T08:02:48;15.86;58.71
69464;DHT22;56665;41.106;16.688;2024-02-23T08:05:52;15.94;58.26
69464;DHT22;56665;41.106;16.688;2024-02-23T08:08:56;16.14;57.80
69464;DHT22;56665;41.106;16.688;2024-02-23T08:11:59;16.31;57.64
69464;DHT22;56665;41.106;16.688;2024-02-23T08:15:04;16.37;57.72
69464;DHT22;56665;41.106;16.688;2024-02-23T08:18:07;16.41;57.76
69464;DHT22;56665;41.106;16.688;2024-02-23T08:21:11;16.38;58.30
69464;DHT22;56665;41.106;16.688;2024-02-23T08:24:15;16.46;58.24
69464;DHT22;56665;41.106;16.688;2024-02-23T08:27:18;16.29;58.75
69464;DHT22;56665;41.106;16.688;2024-02-23T08:30:22;16.35;58.92
69464;DHT22;56665;41.106;16.688;2024-02-23T08:33:26;16.62;58.63
69464;DHT22;56665;41.106;16.688;2024-02-23T08:36:29;16.60;58.75
69464;DHT22;56665;41.106;16.688;2024-02-23T08:39:33;16.77;58.44
69464;DHT22;56665;41.106;16.688;2024-02-23T08:42:37;16.96;58.58
69464;DHT22;56665;41.106;16.688;2024-02-23T08:45:41;17.04;58.14
69464;DHT22;56665;41.106;16.688;2024-02-23T08:48:45;17.21;57.76
69464;DHT22;56665;41.106;16.688;2024-02-23T08:51:49;17.34;57.37
69464;DHT22;56665;41.106;16.688;2024-02-23T08:54:52;17.32;57.62
69464;DHT22;56665;41.106;16.688;2024-02-23T08:57:56;17.18;57.69
69464;DHT22;56665;41.106;16.688;2024-02-23T09:01:00;17.41;57.57
69464;DHT22;56665;41.106;16.688;2024-02-23T09:04:04;17.54;57.27
69464;DHT22;56665;41.106;16.688;2024-02-23T09:07:07;17.64;57.01
69464;DHT22;56665;41.106;16.688;2024-02-23T09:10:11;17.57;56.75
69464;DHT22;56665;41.106;16.688;2024-02-23T09:13:15;17.37;57.26
69464;DHT22;56665;41.106;16.688;2024-02-23T09:16:19;17.48;57.19
69464;DHT22;56665;41.106;16.688;2024-02-23T09:19:24;17.39;57.34
69464;DHT22;56665;41.106;16.688;2024-02-23T09:22:28;17.42;56.78
69464;DHT22;56665;41.106;16.688;2024-02-23T09:25:32;17.34;56.34
69464;DHT22;56665;41.106;16.688;2024-02-23T09:28:36;17.47;55.82
69464;DHT22;56665;41.106;16.688;2024-02-23T09:31:39;17.47;55.46
69464;DHT22;56665;41.106;16.688;2024-02-23T09:34:43;17.57;54.69
69464;DHT22;56665;41.106;16.688;2024-02-23T09:37:46;17.37;54.29
69464;DHT22;56665;41.106;16.688;2024-02-23T09:40:53;17.27;54.56
69464;DHT22;56665;41.106;16.688;2024-02-23T09:44:01;17.47;54.54
69464;DHT22;56665;41.106;16.688;2024-02-23T09:47:06;17.78;54.13
69464;DHT22;56665;41.106;16.688;2024-02-23T09:50:15;18.10;52.87
69464;DHT22;56665;41.106;16.688;2024-02-23T09:53:19;18.31;51.71
69464;DHT22;56665;41.106;16.688;2024-02-23T09:56:27;18.61;50.95
69464;DHT22;56665;41.106;16.688;2024-02-23T09:59:32;19.08;50.08
69464;DHT22;56665;41.106;16.688;2024-02-23T10:02:37;19.25;49.52
69464;DHT22;56665;41.106;16.688;2024-02-23T10:05:43;19.37;49.40
69464;DHT22;56665;41.106;16.688;2024-02-23T10:08:47;19.37;49.40
69464;DHT22;56665;41.106;16.688;2024-02-23T10:11:52;19.03;49.76
69464;DHT22;56665;41.106;16.688;2024-02-23T10:14:57;19.09;49.84
69464;DHT22;56665;41.106;16.688;2024-02-23T10:18:00;19.10;49.51
69464;DHT22;56665;41.106;16.688;2024-02-23T10:21:05;18.91;49.71
69464;DHT22;56665;41.106;16.688;2024-02-23T10:24:09;18.65;49.72
69464;DHT22;56665;41.106;16.688;2024-02-23T10:27:13;18.48;50.10
69464;DHT22;56665;41.106;16.688;2024-02-23T10:30:17;18.48;49.78
69464;DHT22;56665;41.106;16.688;2024-02-23T10:33:23;18.54;49.89
69464;DHT22;56665;41.106;16.688;2024-02-23T10:36:29;18.34;50.13
69464;DHT22;56665;41.106;16.688;2024-02-23T10:39:36;18.34;49.93
69464;DHT22;56665;41.106;16.688;2024-02-23T10:42:43;18.46;50.32
69464;DHT22;56665;41.106;16.688;2024-02-23T10:45:51;18.38;50.21
69464;DHT22;56665;41.106;16.688;2024-02-23T10:48:58;18.50;50.03
69464;DHT22;56665;41.106;16.688;2024-02-23T10:52:03;18.41;48.98
69464;DHT22;56665;41.106;16.688;2024-02-23T10:55:11;18.31;48.64
69464;DHT22;56665;41.106;16.688;2024-02-23T10:58:15;18.37;48.43
69464;DHT22;56665;41.106;16.688;2024-02-23T11:01:19;18.28;48.57
69464;DHT22;56665;41.106;16.688;2024-02-23T11:04:25;18.27;48.14
69464;DHT22;56665;41.106;16.688;2024-02-23T11:07:30;18.92;47.43
69464;DHT22;56665;41.106;16.688;2024-02-23T11:10:43;19.63;46.01
69464;DHT22;56665;41.106;16.688;2024-02-23T11:13:55;20.18;45.13
69464;DHT22;56665;41.106;16.688;2024-02-23T11:16:59;20.43;44.41
69464;DHT22;56665;41.106;16.688;2024-02-23T11:20:04;21.00;43.98
69464;DHT22;56665;41.106;16.688;2024-02-23T11:23:14;20.97;43.27
69464;DHT22;56665;41.106;16.688;2024-02-23T11:26:23;21.25;43.42
69464;DHT22;56665;41.106;16.688;2024-02-23T11:29:27;20.77;43.13
69464;DHT22;56665;41.106;16.688;2024-02-23T11:32:45;20.43;44.74
69464;DHT22;56665;41.106;16.688;2024-02-23T11:35:50;19.61;46.31
69464;DHT22;56665;41.106;16.688;2024-02-23T11:38:57;19.36;46.49
69464;DHT22;56665;41.106;16.688;2024-02-23T11:42:01;19.40;47.00
69464;DHT22;56665;41.106;16.688;2024-02-23T11:45:05;19.32;48.67
69464;DHT22;56665;41.106;16.688;2024-02-23T11:48:09;19.29;46.49
69464;DHT22;56665;41.106;16.688;2024-02-23T11:51:14;19.33;46.75
69464;DHT22;56665;41.106;16.688;2024-02-23T11:54:18;19.29;46.40
69464;DHT22;56665;41.106;16.688;2024-02-23T11:57:22;19.25;46.33
69464;DHT22;56665;41.106;16.688;2024-02-23T12:00:25;18.84;47.18
69464;DHT22;56665;41.106;16.688;2024-02-23T12:03:29;18.65;47.67
69464;DHT22;56665;41.106;16.688;2024-02-23T12:06:36;18.67;47.69
69464;DHT22;56665;41.106;16.688;2024-02-23T12:09:40;18.71;47.57
69464;DHT22;56665;41.106;16.688;2024-02-23T12:12:45;18.26;50.02
69464;DHT22;56665;41.106;16.688;2024-02-23T12:15:52;18.34;50.20
69464;DHT22;56665;41.106;16.688;2024-02-23T12:18:56;18.33;50.25
69464;DHT22;56665;41.106;16.688;2024-02-23T12:22:00;18.07;49.03
69464;DHT22;56665;41.106;16.688;2024-02-23T12:25:05;17.85;49.62
69464;DHT22;56665;41.106;16.688;2024-02-23T12:28:09;17.93;49.81
69464;DHT22;56665;41.106;16.688;2024-02-23T12:31:13;17.71;50.92
69464;DHT22;56665;41.106;16.688;2024-02-23T12:34:17;17.78;51.76
69464;DHT22;56665;41.106;16.688;2024-02-23T12:37:22;17.89;52.88
69464;DHT22;56665;41.106;16.688;2024-02-23T12:40:27;17.61;54.31
69464;DHT22;56665;41.106;16.688;2024-02-23T12:43:30;17.34;55.78
69464;DHT22;56665;41.106;16.688;2024-02-23T12:46:34;17.30;57.00
69464;DHT22;56665;41.106;16.688;2024-02-23T12:49:38;17.32;57.27
69464;DHT22;56665;41.106;16.688;2024-02-23T12:52:42;17.32;57.46
69464;DHT22;56665;41.106;16.688;2024-02-23T12:55:46;17.31;57.37
69464;DHT22;56665;41.106;16.688;2024-02-23T12:58:50;17.31;57.55
69464;DHT22;56665;41.106;16.688;2024-02-23T13:01:53;17.24;56.48
69464;DHT22;56665;41.106;16.688;2024-02-23T13:04:57;17.13;56.30
69464;DHT22;56665;41.106;16.688;2024-02-23T13:08:01;17.03;56.94
69464;DHT22;56665;41.106;16.688;2024-02-23T13:11:04;16.99;57.46
69464;DHT22;56665;41.106;16.688;2024-02-23T13:14:08;17.02;57.98
69464;DHT22;56665;41.106;16.688;2024-02-23T13:17:13;16.90;58.94
69464;DHT22;56665;41.106;16.688;2024-02-23T13:20:17;16.79;59.22
69464;DHT22;56665;41.106;16.688;2024-02-23T13:23:21;16.63;59.43
69464;DHT22;56665;41.106;16.688;2024-02-23T13:26:24;16.73;59.40
69464;DHT22;56665;41.106;16.688;2024-02-23T13:29:28;16.60;60.04
69464;DHT22;56665;41.106;16.688;2024-02-23T13:32:32;16.66;59.91
69464;DHT22;56665;41.106;16.688;2024-02-23T13:35:36;16.44;60.30
69464;DHT22;56665;41.106;16.688;2024-02-23T13:38:39;16.38;60.24
69464;DHT22;56665;41.106;16.688;2024-02-23T13:41:45;16.31;60.22
69464;DHT22;56665;41.106;16.688;2024-02-23T13:44:49;16.35;60.14
69464;DHT22;56665;41.106;16.688;2024-02-23T13:48:02;16.35;60.12
69464;DHT22;56665;41.106;16.688;2024-02-23T13:51:07;16.42;59.95
69464;DHT22;56665;41.106;16.688;2024-02-23T13:54:11;16.31;60.02
69464;DHT22;56665;41.106;16.688;2024-02-23T13:57:14;16.32;59.97
69464;DHT22;56665;41.106;16.688;2024-02-23T14:00:19;16.35;59.84
69464;DHT22;56665;41.106;16.688;2024-02-23T14:03:23;16.58;59.43
69464;DHT22;56665;41.106;16.688;2024-02-23T14:06:27;16.82;58.85
69464;DHT22;56665;41.106;16.688;2024-02-23T14:09:31;17.03;58.32
69464;DHT22;56665;41.106;16.688;2024-02-23T14:12:35;17.11;58.23
69464;DHT22;56665;41.106;16.688;2024-02-23T14:15:38;16.99;57.18
69464;DHT22;56665;41.106;16.688;2024-02-23T14:18:42;16.76;57.37
69464;DHT22;56665;41.106;16.688;2024-02-23T14:21:48;16.77;57.09
69464;DHT22;56665;41.106;16.688;2024-02-23T14:24:52;16.68;56.64
69464;DHT22;56665;41.106;16.688;2024-02-23T14:27:56;16.46;56.87
69464;DHT22;56665;41.106;16.688;2024-02-23T14:30:59;16.52;56.92
69464;DHT22;56665;41.106;16.688;2024-02-23T14:34:03;16.45;56.41
69464;DHT22;56665;41.106;16.688;2024-02-23T14:37:07;16.22;56.36
69464;DHT22;56665;41.106;16.688;2024-02-23T14:40:11;16.24;56.54
69464;DHT22;56665;41.106;16.688;2024-02-23T14:43:15;16.27;56.59
69464;DHT22;56665;41.106;16.688;2024-02-23T14:46:18;16.27;56.65
69464;DHT22;56665;41.106;16.688;2024-02-23T14:49:22;16.21;56.49
69464;DHT22;56665;41.106;16.688;2024-02-23T14:52:26;16.18;56.75
69464;DHT22;56665;41.106;16.688;2024-02-23T14:55:30;16.08;56.77
69464;DHT22;56665;41.106;16.688;2024-02-23T14:58:33;15.96;57.04
69464;DHT22;56665;41.106;16.688;2024-02-23T15:01:38;15.94;57.41
69464;DHT22;56665;41.106;16.688;2024-02-23T15:04:44;15.81;57.77
69464;DHT22;56665;41.106;16.688;2024-02-23T15:07:48;15.70;58.02
69464;DHT22;56665;41.106;16.688;2024-02-23T15:10:51;15.65;58.08
69464;DHT22;56665;41.106;16.688;2024-02-23T15:13:55;15.57;58.35
69464;DHT22;56665;41.106;16.688;2024-02-23T15:17:03;15.52;58.58
69464;DHT22;56665;41.106;16.688;2024-02-23T15:20:08;15.46;58.88
69464;DHT22;56665;41.106;16.688;2024-02-23T15:23:12;15.45;59.23
69464;DHT22;56665;41.106;16.688;2024-02-23T15:26:17;15.42;59.57
69464;DHT22;56665;41.106;16.688;2024-02-23T15:29:20;15.36;59.98
69464;DHT22;56665;41.106;16.688;2024-02-23T15:32:24;15.31;60.32
69464;DHT22;56665;41.106;16.688;2024-02-23T15:35:28;15.25;60.74
69464;DHT22;56665;41.106;16.688;2024-02-23T15:38:34;15.20;61.03
69464;DHT22;56665;41.106;16.688;2024-02-23T15:41:37;15.18;61.27
69464;DHT22;56665;41.106;16.688;2024-02-23T15:44:41;15.18;60.94
69464;DHT22;56665;41.106;16.688;2024-02-23T15:47:45;15.16;61.19
69464;DHT22;56665;41.106;16.688;2024-02-23T15:50:49;15.20;61.28
69464;DHT22;56665;41.106;16.688;2024-02-23T15:53:53;15.23;61.11
69464;DHT22;56665;41.106;16.688;2024-02-23T15:56:58;15.23;61.09
69464;DHT22;56665;41.106;16.688;2024-02-23T16:00:04;15.19;61.00
69464;DHT22;56665;41.106;16.688;2024-02-23T16:03:10;15.12;61.09
69464;DHT22;56665;41.106;16.688;2024-02-23T16:06:14;15.12;61.05
69464;DHT22;56665;41.106;16.688;2024-02-23T16:09:19;15.11;61.08
69464;DHT22;56665;41.106;16.688;2024-02-23T16:12:23;15.07;60.98
69464;DHT22;56665;41.106;16.688;2024-02-23T16:15:26;15.05;61.13
69464;DHT22;56665;41.106;16.688;2024-02-23T16:18:30;14.99;61.09
69464;DHT22;56665;41.106;16.688;2024-02-23T16:21:36;14.99;61.41
69464;DHT22;56665;41.106;16.688;2024-02-23T16:24:41;14.89;62.01
69464;DHT22;56665;41.106;16.688;2024-02-23T16:27:45;14.85;63.16
69464;DHT22;56665;41.106;16.688;2024-02-23T16:30:50;14.78;64.23
69464;DHT22;56665;41.106;16.688;2024-02-23T16:33:53;14.68;65.55
69464;DHT22;56665;41.106;16.688;2024-02-23T16:36:57;14.68;66.71
69464;DHT22;56665;41.106;16.688;2024-02-23T16:40:01;14.63;67.66
69464;DHT22;56665;41.106;16.688;2024-02-23T16:43:05;14.59;68.56
69464;DHT22;56665;41.106;16.688;2024-02-23T16:46:08;14.56;69.57
69464;DHT22;56665;41.106;16.688;2024-02-23T16:49:12;14.55;70.48
69464;DHT22;56665;41.106;16.688;2024-02-23T16:52:16;14.50;70.87
69464;DHT22;56665;41.106;16.688;2024-02-23T16:55:20;14.50;71.46
69464;DHT22;56665;41.106;16.688;2024-02-23T16:58:24;14.47;71.76
69464;DHT22;56665;41.106;16.688;2024-02-23T17:01:28;14.44;71.99
69464;DHT22;56665;41.106;16.688;2024-02-23T17:04:31;14.41;71.97
69464;DHT22;56665;41.106;16.688;2024-02-23T17:07:35;14.40;71.82
69464;DHT22;56665;41.106;16.688;2024-02-23T17:10:40;14.43;71.54
69464;DHT22;56665;41.106;16.688;2024-02-23T17:13:44;14.40;71.23
69464;DHT22;56665;41.106;16.688;2024-02-23T17:16:50;14.41;71.01
69464;DHT22;56665;41.106;16.688;2024-02-23T17:19:54;14.40;70.82
69464;DHT22;56665;41.106;16.688;2024-02-23T17:22:58;14.41;70.37
69464;DHT22;56665;41.106;16.688;2024-02-23T17:26:01;14.36;69.96
69464;DHT22;56665;41.106;16.688;2024-02-23T17:29:07;14.37;69.46
69464;DHT22;56665;41.106;16.688;2024-02-23T17:32:13;14.34;69.19
69464;DHT22;56665;41.106;16.688;2024-02-23T17:35:17;14.34;68.69
69464;DHT22;56665;41.106;16.688;2024-02-23T17:38:21;14.37;68.00
69464;DHT22;56665;41.106;16.688;2024-02-23T17:41:25;14.37;67.52
69464;DHT22;56665;41.106;16.688;2024-02-23T17:44:29;14.37;67.20
69464;DHT22;56665;41.106;16.688;2024-02-23T17:47:32;14.36;67.03
69464;DHT22;56665;41.106;16.688;2024-02-23T17:50:37;14.36;66.50
69464;DHT22;56665;41.106;16.688;2024-02-23T17:53:40;14.40;66.21
69464;DHT22;56665;41.106;16.688;2024-02-23T17:56:44;14.39;66.02
69464;DHT22;56665;41.106;16.688;2024-02-23T17:59:47;14.39;65.72
69464;DHT22;56665;41.106;16.688;2024-02-23T18:02:51;14.41;65.28
69464;DHT22;56665;41.106;16.688;2024-02-23T18:05:58;14.43;64.55
69464;DHT22;56665;41.106;16.688;2024-02-23T18:09:02;14.46;64.38
69464;DHT22;56665;41.106;16.688;2024-02-23T18:12:07;14.43;63.54
69464;DHT22;56665;41.106;16.688;2024-02-23T18:15:11;14.46;63.42
69464;DHT22;56665;41.106;16.688;2024-02-23T18:18:15;14.49;63.11
69464;DHT22;56665;41.106;16.688;2024-02-23T18:21:20;14.50;63.11
69464;DHT22;56665;41.106;16.688;2024-02-23T18:24:25;14.50;62.55
69464;DHT22;56665;41.106;16.688;2024-02-23T18:27:29;14.55;62.88
69464;DHT22;56665;41.106;16.688;2024-02-23T18:30:32;14.55;62.67
69464;DHT22;56665;41.106;16.688;2024-02-23T18:33:36;14.55;62.51
69464;DHT22;56665;41.106;16.688;2024-02-23T18:36:40;14.55;62.37
69464;DHT22;56665;41.106;16.688;2024-02-23T18:39:44;14.55;62.45
69464;DHT22;56665;41.106;16.688;2024-02-23T18:42:48;14.55;62.58
69464;DHT22;56665;41.106;16.688;2024-02-23T18:45:51;14.55;63.03
69464;DHT22;56665;41.106;16.688;2024-02-23T18:48:57;14.55;63.48
69464;DHT22;56665;41.106;16.688;2024-02-23T18:52:02;14.56;64.31
69464;DHT22;56665;41.106;16.688;2024-02-23T18:55:05;14.55;65.19
69464;DHT22;56665;41.106;16.688;2024-02-23T18:58:12;14.55;66.02
69464;DHT22;56665;41.106;16.688;2024-02-23T19:01:16;14.52;66.73
69464;DHT22;56665;41.106;16.688;2024-02-23T19:04:20;14.56;67.49